sensor_id;sensor_type;location;lat;lon;timestamp;pressure;altitude;pressure_sealevel;temperature;humidity
67377;BME280;54261;46.086;6.588;2023-03-11T00:03:31;91634.72;;;3.61;48.01
67377;BME280;54261;46.086;6.588;2023-03-11T00:08:33;91630.69;;;3.35;48.09
67377;BME280;54261;46.086;6.588;2023-03-11T00:13:35;91604.06;;;3.40;49.66
67377;BME280;54261;46.086;6.588;2023-03-11T00:18:37;91592.63;;;2.65;49.58
67377;BME280;54261;46.086;6.588;2023-03-11T00:23:39;91607.09;;;1.23;52.89
67377;BME280;54261;46.086;6.588;2023-03-11T00:28:41;91602.00;;;2.19;52.05
67377;BME280;54261;46.086;6.588;2023-03-11T00:33:43;91594.78;;;2.05;51.87
67377;BME280;54261;46.086;6.588;2023-03-11T00:38:46;91579.50;;;2.87;50.18
67377;BME280;54261;46.086;6.588;2023-03-11T00:43:48;91593.84;;;3.20;49.70
67377;BME280;54261;46.086;6.588;2023-03-11T00:48:50;91600.72;;;2.87;49.93
67377;BME280;54261;46.086;6.588;2023-03-11T00:53:53;91590.56;;;2.62;51.04
67377;BME280;54261;46.086;6.588;2023-03-11T00:58:54;91575.03;;;4.00;49.60
67377;BME280;54261;46.086;6.588;2023-03-11T01:03:56;91586.31;;;2.61;50.85
67377;BME280;54261;46.086;6.588;2023-03-11T01:08:58;91566.34;;;3.57;50.05
67377;BME280;54261;46.086;6.588;2023-03-11T01:14:00;91527.44;;;3.11;50.77
67377;BME280;54261;46.086;6.588;2023-03-11T01:19:02;91559.63;;;3.04;52.43
67377;BME280;54261;46.086;6.588;2023-03-11T01:24:04;91563.59;;;3.21;51.38
67377;BME280;54261;46.086;6.588;2023-03-11T01:29:06;91534.50;;;2.54;51.63
67377;BME280;54261;46.086;6.588;2023-03-11T01:34:07;91526.66;;;3.38;51.09
67377;BME280;54261;46.086;6.588;2023-03-11T01:39:09;91544.28;;;2.54;51.98
67377;BME280;54261;46.086;6.588;2023-03-11T01:44:11;91539.22;;;3.19;50.63
67377;BME280;54261;46.086;6.588;2023-03-11T01:49:13;91513.84;;;2.84;50.80
67377;BME280;54261;46.086;6.588;2023-03-11T01:54:20;91522.69;;;3.36;50.04
67377;BME280;54261;46.086;6.588;2023-03-11T01:59:29;91521.25;;;3.94;48.89
67377;BME280;54261;46.086;6.588;2023-03-11T02:04:33;91512.19;;;3.95;49.19
67377;BME280;54261;46.086;6.588;2023-03-11T02:09:36;91476.28;;;4.58;49.06
67377;BME280;54261;46.086;6.588;2023-03-11T02:14:42;91475.19;;;4.59;47.68
67377;BME280;54261;46.086;6.588;2023-03-11T02:30:44;91479.66;;;4.04;49.18
67377;BME280;54261;46.086;6.588;2023-03-11T02:35:48;91464.97;;;3.69;49.36
67377;BME280;54261;46.086;6.588;2023-03-11T02:40:53;91468.69;;;3.46;49.20
67377;BME280;54261;46.086;6.588;2023-03-11T02:45:58;91454.59;;;3.59;48.71
67377;BME280;54261;46.086;6.588;2023-03-11T02:51:01;91450.84;;;3.97;48.95
67377;BME280;54261;46.086;6.588;2023-03-11T02:56:04;91442.09;;;3.60;50.68
67377;BME280;54261;46.086;6.588;2023-03-11T03:01:08;91435.69;;;3.24;49.68
67377;BME280;54261;46.086;6.588;2023-03-11T03:06:11;91447.94;;;2.50;53.38
67377;BME280;54261;46.086;6.588;2023-03-11T03:11:13;91432.66;;;3.67;50.29
67377;BME280;54261;46.086;6.588;2023-03-11T03:16:15;91433.09;;;3.83;50.69
67377;BME280;54261;46.086;6.588;2023-03-11T03:21:17;91435.06;;;4.37;49.49
67377;BME280;54261;46.086;6.588;2023-03-11T03:26:19;91415.84;;;4.40;48.30
67377;BME280;54261;46.086;6.588;2023-03-11T03:31:23;91416.22;;;4.02;49.51
67377;BME280;54261;46.086;6.588;2023-03-11T03:36:25;91365.84;;;4.11;50.19
67377;BME280;54261;46.086;6.588;2023-03-11T03:41:32;91399.78;;;4.14;49.78
67377;BME280;54261;46.086;6.588;2023-03-11T03:46:34;91379.88;;;4.66;48.83
67377;BME280;54261;46.086;6.588;2023-03-11T03:51:37;91359.88;;;3.23;49.92
67377;BME280;54261;46.086;6.588;2023-03-11T03:56:53;91374.41;;;3.62;50.44
67377;BME280;54261;46.086;6.588;2023-03-11T04:01:56;91368.84;;;4.18;49.71
67377;BME280;54261;46.086;6.588;2023-03-11T04:06:59;91360.09;;;4.49;48.28
67377;BME280;54261;46.086;6.588;2023-03-11T04:12:01;91366.25;;;3.81;50.27
67377;BME280;54261;46.086;6.588;2023-03-11T04:17:04;91375.19;;;3.26;51.46
67377;BME280;54261;46.086;6.588;2023-03-11T04:22:06;91377.13;;;4.17;50.09
67377;BME280;54261;46.086;6.588;2023-03-11T04:27:08;91371.63;;;4.45;49.76
67377;BME280;54261;46.086;6.588;2023-03-11T04:32:10;91357.88;;;4.11;49.74
67377;BME280;54261;46.086;6.588;2023-03-11T04:37:14;91355.22;;;4.42;48.92
67377;BME280;54261;46.086;6.588;2023-03-11T04:42:16;91355.72;;;4.13;50.16
67377;BME280;54261;46.086;6.588;2023-03-11T04:47:20;91325.72;;;3.07;52.25
67377;BME280;54261;46.086;6.588;2023-03-11T04:52:22;91402.44;;;3.40;52.38
67377;BME280;54261;46.086;6.588;2023-03-11T04:57:25;91408.84;;;3.99;51.79
67377;BME280;54261;46.086;6.588;2023-03-11T05:02:27;91410.78;;;4.62;50.00
67377;BME280;54261;46.086;6.588;2023-03-11T05:07:33;91397.59;;;2.02;56.63
67377;BME280;54261;46.086;6.588;2023-03-11T05:12:35;91399.28;;;4.44;51.97
67377;BME280;54261;46.086;6.588;2023-03-11T05:17:37;91379.16;;;4.92;48.77
67377;BME280;54261;46.086;6.588;2023-03-11T05:22:41;91362.69;;;4.72;48.85
67377;BME280;54261;46.086;6.588;2023-03-11T05:27:44;91382.28;;;5.61;47.15
67377;BME280;54261;46.086;6.588;2023-03-11T05:32:47;91383.06;;;5.61;46.61
67377;BME280;54261;46.086;6.588;2023-03-11T05:37:51;91383.28;;;5.16;47.13
67377;BME280;54261;46.086;6.588;2023-03-11T05:42:55;91371.00;;;5.55;47.25
67377;BME280;54261;46.086;6.588;2023-03-11T05:47:57;91345.34;;;4.75;47.03
67377;BME280;54261;46.086;6.588;2023-03-11T05:52:59;91373.94;;;4.69;48.63
67377;BME280;54261;46.086;6.588;2023-03-11T05:58:03;91371.72;;;5.29;47.59
67377;BME280;54261;46.086;6.588;2023-03-11T06:03:05;91366.81;;;4.96;46.92
67377;BME280;54261;46.086;6.588;2023-03-11T06:08:08;91379.50;;;5.08;47.87
67377;BME280;54261;46.086;6.588;2023-03-11T06:13:10;91358.75;;;5.36;47.99
67377;BME280;54261;46.086;6.588;2023-03-11T06:18:20;91370.66;;;4.72;48.61
67377;BME280;54261;46.086;6.588;2023-03-11T06:23:23;91362.66;;;5.39;47.59
67377;BME280;54261;46.086;6.588;2023-03-11T06:28:25;91373.09;;;5.09;47.23
67377;BME280;54261;46.086;6.588;2023-03-11T06:33:28;91397.88;;;5.27;47.31
67377;BME280;54261;46.086;6.588;2023-03-11T06:38:30;91415.28;;;6.30;47.67
67377;BME280;54261;46.086;6.588;2023-03-11T06:43:33;91426.53;;;5.39;47.38
67377;BME280;54261;46.086;6.588;2023-03-11T06:48:36;91437.69;;;5.50;47.79
67377;BME280;54261;46.086;6.588;2023-03-11T06:53:38;91431.94;;;6.09;47.33
67377;BME280;54261;46.086;6.588;2023-03-11T06:58:42;91432.38;;;6.38;45.97
67377;BME280;54261;46.086;6.588;2023-03-11T07:03:46;91426.63;;;6.09;46.25
67377;BME280;54261;46.086;6.588;2023-03-11T07:08:50;91441.28;;;5.45;46.20
67377;BME280;54261;46.086;6.588;2023-03-11T07:13:53;91428.88;;;5.40;46.63
67377;BME280;54261;46.086;6.588;2023-03-11T07:18:57;91433.31;;;5.45;46.29
67377;BME280;54261;46.086;6.588;2023-03-11T07:24:02;91441.78;;;5.56;47.22
67377;BME280;54261;46.086;6.588;2023-03-11T07:29:04;91434.56;;;5.48;47.32
67377;BME280;54261;46.086;6.588;2023-03-11T07:34:06;91455.72;;;5.62;47.61
67377;BME280;54261;46.086;6.588;2023-03-11T07:39:14;91467.94;;;5.80;47.56
67377;BME280;54261;46.086;6.588;2023-03-11T07:44:17;91454.50;;;5.68;47.89
67377;BME280;54261;46.086;6.588;2023-03-11T07:49:19;91480.06;;;5.37;46.55
67377;BME280;54261;46.086;6.588;2023-03-11T07:54:20;91485.16;;;5.16;46.69
67377;BME280;54261;46.086;6.588;2023-03-11T07:59:22;91470.31;;;5.73;47.61
67377;BME280;54261;46.086;6.588;2023-03-11T08:04:24;91486.16;;;6.05;47.14
67377;BME280;54261;46.086;6.588;2023-03-11T08:09:26;91488.50;;;6.15;46.56
67377;BME280;54261;46.086;6.588;2023-03-11T08:14:28;91470.63;;;6.24;47.17
67377;BME280;54261;46.086;6.588;2023-03-11T08:19:30;91470.59;;;6.60;46.76
67377;BME280;54261;46.086;6.588;2023-03-11T08:24:32;91480.47;;;6.59;47.09
67377;BME280;54261;46.086;6.588;2023-03-11T08:29:34;91486.13;;;6.31;47.95
67377;BME280;54261;46.086;6.588;2023-03-11T08:34:37;91506.09;;;5.09;48.14
67377;BME280;54261;46.086;6.588;2023-03-11T08:39:40;91514.09;;;4.86;49.02
67377;BME280;54261;46.086;6.588;2023-03-11T08:44:42;91528.22;;;5.27;49.96
67377;BME280;54261;46.086;6.588;2023-03-11T08:49:44;91527.28;;;5.54;48.97
67377;BME280;54261;46.086;6.588;2023-03-11T08:54:46;91531.41;;;5.38;48.90
67377;BME280;54261;46.086;6.588;2023-03-11T08:59:48;91547.41;;;4.83;51.80
67377;BME280;54261;46.086;6.588;2023-03-11T09:04:50;91557.63;;;6.11;49.51
67377;BME280;54261;46.086;6.588;2023-03-11T09:09:52;91552.00;;;6.31;49.07
67377;BME280;54261;46.086;6.588;2023-03-11T09:14:55;91547.75;;;6.47;47.99
67377;BME280;54261;46.086;6.588;2023-03-11T09:19:57;91564.38;;;5.28;49.75
67377;BME280;54261;46.086;6.588;2023-03-11T09:24:59;91582.53;;;6.16;48.51
67377;BME280;54261;46.086;6.588;2023-03-11T09:30:00;91575.31;;;5.58;48.60
67377;BME280;54261;46.086;6.588;2023-03-11T09:35:03;91573.66;;;5.62;48.39
67377;BME280;54261;46.086;6.588;2023-03-11T09:40:05;91581.22;;;5.15;51.02
67377;BME280;54261;46.086;6.588;2023-03-11T09:50:33;91610.63;;;6.48;48.37
67377;BME280;54261;46.086;6.588;2023-03-11T09:55:57;91599.91;;;6.13;49.02
67377;BME280;54261;46.086;6.588;2023-03-11T10:01:00;91608.91;;;5.68;49.07
67377;BME280;54261;46.086;6.588;2023-03-11T10:06:11;91602.75;;;5.36;51.48
67377;BME280;54261;46.086;6.588;2023-03-11T10:27:23;91597.38;;;5.90;51.86
67377;BME280;54261;46.086;6.588;2023-03-11T10:37:49;91591.66;;;6.67;49.98
67377;BME280;54261;46.086;6.588;2023-03-11T10:42:54;91600.16;;;6.78;49.83
67377;BME280;54261;46.086;6.588;2023-03-11T10:47:57;91619.72;;;6.38;49.08
67377;BME280;54261;46.086;6.588;2023-03-11T10:53:08;91622.28;;;6.79;48.99
67377;BME280;54261;46.086;6.588;2023-03-11T10:58:17;91613.56;;;7.44;49.16
67377;BME280;54261;46.086;6.588;2023-03-11T11:03:22;91622.03;;;7.85;47.92
67377;BME280;54261;46.086;6.588;2023-03-11T11:08:24;91623.06;;;7.62;48.46
67377;BME280;54261;46.086;6.588;2023-03-11T11:13:28;91625.09;;;7.09;48.43
67377;BME280;54261;46.086;6.588;2023-03-11T11:18:41;91611.44;;;6.66;49.49
67377;BME280;54261;46.086;6.588;2023-03-11T11:23:49;91594.91;;;7.17;49.20
67377;BME280;54261;46.086;6.588;2023-03-11T11:29:13;91627.72;;;6.65;49.52
67377;BME280;54261;46.086;6.588;2023-03-11T11:34:33;91638.88;;;5.82;50.94
67377;BME280;54261;46.086;6.588;2023-03-11T11:40:05;91629.97;;;6.98;50.28
67377;BME280;54261;46.086;6.588;2023-03-11T11:45:15;91640.69;;;7.55;49.68
67377;BME280;54261;46.086;6.588;2023-03-11T11:50:40;91642.34;;;7.77;48.76
67377;BME280;54261;46.086;6.588;2023-03-11T11:55:50;91640.28;;;7.83;48.53
67377;BME280;54261;46.086;6.588;2023-03-11T12:01:13;91632.41;;;7.95;48.29
67377;BME280;54261;46.086;6.588;2023-03-11T12:06:43;91646.91;;;8.45;47.08
67377;BME280;54261;46.086;6.588;2023-03-11T12:16:56;91649.28;;;8.17;47.33
67377;BME280;54261;46.086;6.588;2023-03-11T12:27:30;91657.41;;;9.23;47.24
67377;BME280;54261;46.086;6.588;2023-03-11T12:32:41;91636.19;;;8.97;46.91
67377;BME280;54261;46.086;6.588;2023-03-11T12:37:45;91642.72;;;9.08;46.75
67377;BME280;54261;46.086;6.588;2023-03-11T12:42:47;91642.63;;;9.38;46.97
67377;BME280;54261;46.086;6.588;2023-03-11T12:53:45;91640.03;;;9.63;45.92
67377;BME280;54261;46.086;6.588;2023-03-11T13:04:24;91626.91;;;9.49;46.34
67377;BME280;54261;46.086;6.588;2023-03-11T13:09:27;91625.44;;;9.85;46.10
67377;BME280;54261;46.086;6.588;2023-03-11T13:14:33;91608.69;;;10.01;46.55
67377;BME280;54261;46.086;6.588;2023-03-11T13:19:37;91623.88;;;10.22;46.53
67377;BME280;54261;46.086;6.588;2023-03-11T13:24:49;91637.63;;;7.17;52.81
67377;BME280;54261;46.086;6.588;2023-03-11T13:30:18;91631.03;;;8.91;48.95
67377;BME280;54261;46.086;6.588;2023-03-11T13:36:12;91643.72;;;9.03;48.27
67377;BME280;54261;46.086;6.588;2023-03-11T13:41:21;91646.50;;;9.74;47.72
67377;BME280;54261;46.086;6.588;2023-03-11T13:46:31;91637.19;;;9.47;47.17
67377;BME280;54261;46.086;6.588;2023-03-11T13:51:46;91644.09;;;9.14;47.26
67377;BME280;54261;46.086;6.588;2023-03-11T13:57:01;91642.63;;;6.39;54.60
67377;BME280;54261;46.086;6.588;2023-03-11T14:02:15;91648.44;;;8.55;50.01
67377;BME280;54261;46.086;6.588;2023-03-11T14:12:30;91662.16;;;8.75;48.18
67377;BME280;54261;46.086;6.588;2023-03-11T14:17:32;91668.31;;;9.18;48.88
67377;BME280;54261;46.086;6.588;2023-03-11T14:22:34;91673.19;;;9.71;47.93
67377;BME280;54261;46.086;6.588;2023-03-11T14:27:37;91676.75;;;9.75;46.41
67377;BME280;54261;46.086;6.588;2023-03-11T14:32:39;91679.84;;;9.65;46.32
67377;BME280;54261;46.086;6.588;2023-03-11T14:37:41;91676.94;;;9.57;46.42
67377;BME280;54261;46.086;6.588;2023-03-11T14:42:43;91691.31;;;7.07;51.05
67377;BME280;54261;46.086;6.588;2023-03-11T14:48:21;91690.72;;;7.93;50.22
67377;BME280;54261;46.086;6.588;2023-03-11T14:58:35;91699.16;;;8.73;49.49
67377;BME280;54261;46.086;6.588;2023-03-11T15:08:58;91696.06;;;9.13;48.70
67377;BME280;54261;46.086;6.588;2023-03-11T15:14:32;91695.88;;;8.67;49.30
67377;BME280;54261;46.086;6.588;2023-03-11T15:19:34;91700.16;;;9.11;48.77
67377;BME280;54261;46.086;6.588;2023-03-11T15:24:36;91697.41;;;8.98;48.32
67377;BME280;54261;46.086;6.588;2023-03-11T15:29:38;91722.94;;;5.29;58.26
67377;BME280;54261;46.086;6.588;2023-03-11T15:34:40;91724.31;;;6.44;56.03
67377;BME280;54261;46.086;6.588;2023-03-11T15:39:44;91738.28;;;8.08;52.76
67377;BME280;54261;46.086;6.588;2023-03-11T15:45:17;91732.97;;;8.47;51.70
67377;BME280;54261;46.086;6.588;2023-03-11T15:50:25;91742.47;;;7.62;52.33
67377;BME280;54261;46.086;6.588;2023-03-11T15:55:56;91740.50;;;8.54;50.82
67377;BME280;54261;46.086;6.588;2023-03-11T16:01:08;91734.97;;;8.12;49.09
67377;BME280;54261;46.086;6.588;2023-03-11T16:06:10;91720.72;;;8.38;49.75
67377;BME280;54261;46.086;6.588;2023-03-11T16:11:12;91747.72;;;6.65;54.50
67377;BME280;54261;46.086;6.588;2023-03-11T16:16:15;91752.50;;;7.65;51.82
67377;BME280;54261;46.086;6.588;2023-03-11T16:21:20;91762.72;;;7.72;50.86
67377;BME280;54261;46.086;6.588;2023-03-11T16:26:23;91758.66;;;8.70;50.16
67377;BME280;54261;46.086;6.588;2023-03-11T16:31:24;91774.94;;;7.82;52.46
67377;BME280;54261;46.086;6.588;2023-03-11T16:36:26;91776.34;;;8.05;51.20
67377;BME280;54261;46.086;6.588;2023-03-11T16:41:28;91775.72;;;8.08;50.37
67377;BME280;54261;46.086;6.588;2023-03-11T16:46:30;91779.81;;;7.97;50.95
67377;BME280;54261;46.086;6.588;2023-03-11T16:51:32;91789.59;;;7.66;51.18
67377;BME280;54261;46.086;6.588;2023-03-11T16:56:34;91799.59;;;8.61;50.79
67377;BME280;54261;46.086;6.588;2023-03-11T17:01:37;91810.97;;;8.49;48.85
67377;BME280;54261;46.086;6.588;2023-03-11T17:06:39;91785.72;;;8.29;49.79
67377;BME280;54261;46.086;6.588;2023-03-11T17:11:41;91827.06;;;8.32;49.18
67377;BME280;54261;46.086;6.588;2023-03-11T17:16:43;91819.09;;;8.05;49.80
67377;BME280;54261;46.086;6.588;2023-03-11T17:21:48;91831.16;;;8.38;49.73
67377;BME280;54261;46.086;6.588;2023-03-11T17:26:50;91824.94;;;7.46;50.50
67377;BME280;54261;46.086;6.588;2023-03-11T17:31:52;91839.50;;;7.31;51.25
67377;BME280;54261;46.086;6.588;2023-03-11T17:36:54;91830.59;;;7.53;51.27
67377;BME280;54261;46.086;6.588;2023-03-11T17:41:57;91821.31;;;7.77;50.21
67377;BME280;54261;46.086;6.588;2023-03-11T17:46:58;91837.91;;;7.03;52.59
67377;BME280;54261;46.086;6.588;2023-03-11T17:52:01;91843.88;;;7.09;52.59
67377;BME280;54261;46.086;6.588;2023-03-11T17:57:03;91849.94;;;6.92;53.38
67377;BME280;54261;46.086;6.588;2023-03-11T18:02:06;91853.53;;;6.56;55.20
67377;BME280;54261;46.086;6.588;2023-03-11T18:07:08;91854.28;;;6.38;53.61
67377;BME280;54261;46.086;6.588;2023-03-11T18:12:10;91868.56;;;5.37;56.95
67377;BME280;54261;46.086;6.588;2023-03-11T18:17:12;91855.22;;;7.23;53.52
67377;BME280;54261;46.086;6.588;2023-03-11T18:22:13;91852.59;;;7.85;50.90
67377;BME280;54261;46.086;6.588;2023-03-11T18:27:16;91888.28;;;6.64;52.95
67377;BME280;54261;46.086;6.588;2023-03-11T18:32:18;91891.84;;;7.58;52.54
67377;BME280;54261;46.086;6.588;2023-03-11T18:37:21;91884.13;;;7.39;52.38
67377;BME280;54261;46.086;6.588;2023-03-11T18:42:23;91878.75;;;6.72;54.21
67377;BME280;54261;46.086;6.588;2023-03-11T18:47:24;91880.06;;;7.68;52.66
67377;BME280;54261;46.086;6.588;2023-03-11T18:52:26;91910.16;;;5.61;57.28
67377;BME280;54261;46.086;6.588;2023-03-11T18:57:28;91916.78;;;6.32;54.06
67377;BME280;54261;46.086;6.588;2023-03-11T19:02:30;91931.25;;;7.44;51.92
67377;BME280;54261;46.086;6.588;2023-03-11T19:07:31;91915.47;;;6.75;52.45
67377;BME280;54261;46.086;6.588;2023-03-11T19:12:33;91914.22;;;7.22;52.23
67377;BME280;54261;46.086;6.588;2023-03-11T19:17:35;91925.94;;;7.61;51.17
67377;BME280;54261;46.086;6.588;2023-03-11T19:22:37;91966.19;;;6.84;53.08
67377;BME280;54261;46.086;6.588;2023-03-11T19:27:39;91969.41;;;8.02;51.22
67377;BME280;54261;46.086;6.588;2023-03-11T19:32:41;91956.28;;;6.30;53.76
67377;BME280;54261;46.086;6.588;2023-03-11T19:37:42;91959.84;;;6.71;53.61
67377;BME280;54261;46.086;6.588;2023-03-11T19:42:44;91950.22;;;8.18;52.34
67377;BME280;54261;46.086;6.588;2023-03-11T19:47:46;91961.00;;;8.83;50.89
67377;BME280;54261;46.086;6.588;2023-03-11T19:52:51;91959.06;;;9.01;49.52
67377;BME280;54261;46.086;6.588;2023-03-11T19:57:53;91943.66;;;8.81;49.61
67377;BME280;54261;46.086;6.588;2023-03-11T20:02:55;91965.84;;;8.90;48.18
67377;BME280;54261;46.086;6.588;2023-03-11T20:07:57;91959.97;;;8.22;48.88
67377;BME280;54261;46.086;6.588;2023-03-11T20:12:59;91959.63;;;8.33;48.27
67377;BME280;54261;46.086;6.588;2023-03-11T20:18:04;91969.56;;;7.48;50.29
67377;BME280;54261;46.086;6.588;2023-03-11T20:23:06;91964.03;;;7.93;52.62
67377;BME280;54261;46.086;6.588;2023-03-11T20:28:09;91978.34;;;8.15;49.60
67377;BME280;54261;46.086;6.588;2023-03-11T20:33:11;91982.28;;;5.74;56.38
67377;BME280;54261;46.086;6.588;2023-03-11T20:38:13;91994.09;;;6.55;54.83
67377;BME280;54261;46.086;6.588;2023-03-11T20:43:15;92009.25;;;6.09;55.51
67377;BME280;54261;46.086;6.588;2023-03-11T20:48:17;91998.81;;;5.99;55.21
67377;BME280;54261;46.086;6.588;2023-03-11T20:53:19;92022.22;;;2.53;68.45
67377;BME280;54261;46.086;6.588;2023-03-11T20:58:21;92037.47;;;2.71;71.34
67377;BME280;54261;46.086;6.588;2023-03-11T21:03:22;92038.03;;;4.28;65.72
67377;BME280;54261;46.086;6.588;2023-03-11T21:08:25;92042.16;;;5.76;62.57
67377;BME280;54261;46.086;6.588;2023-03-11T21:13:26;92051.56;;;4.32;62.71
67377;BME280;54261;46.086;6.588;2023-03-11T21:18:29;92039.28;;;6.60;59.95
67377;BME280;54261;46.086;6.588;2023-03-11T21:23:31;92059.16;;;6.54;58.35
67377;BME280;54261;46.086;6.588;2023-03-11T21:28:33;92060.56;;;6.15;57.30
67377;BME280;54261;46.086;6.588;2023-03-11T21:33:39;92077.97;;;7.58;54.40
67377;BME280;54261;46.086;6.588;2023-03-11T21:38:41;92067.34;;;7.26;57.16
67377;BME280;54261;46.086;6.588;2023-03-11T21:43:44;92080.34;;;7.59;54.02
67377;BME280;54261;46.086;6.588;2023-03-11T21:48:47;92088.94;;;8.46;53.62
67377;BME280;54261;46.086;6.588;2023-03-11T21:53:49;92095.31;;;6.83;56.11
67377;BME280;54261;46.086;6.588;2023-03-11T21:58:51;92099.53;;;8.02;54.31
67377;BME280;54261;46.086;6.588;2023-03-11T22:03:54;92107.34;;;8.65;52.97
67377;BME280;54261;46.086;6.588;2023-03-11T22:08:57;92096.50;;;8.53;50.13
67377;BME280;54261;46.086;6.588;2023-03-11T22:13:59;92094.34;;;6.42;56.12
67377;BME280;54261;46.086;6.588;2023-03-11T22:19:01;92086.09;;;8.33;53.63
67377;BME280;54261;46.086;6.588;2023-03-11T22:24:06;92104.31;;;8.14;50.55
67377;BME280;54261;46.086;6.588;2023-03-11T22:29:08;92099.66;;;8.81;51.34
67377;BME280;54261;46.086;6.588;2023-03-11T22:34:10;92085.16;;;8.73;49.85
67377;BME280;54261;46.086;6.588;2023-03-11T22:39:11;92113.47;;;8.65;49.14
67377;BME280;54261;46.086;6.588;2023-03-11T22:44:13;92125.44;;;9.30;49.51
67377;BME280;54261;46.086;6.588;2023-03-11T22:49:15;92125.06;;;9.58;48.16
67377;BME280;54261;46.086;6.588;2023-03-11T22:54:17;92127.22;;;9.17;47.92
67377;BME280;54261;46.086;6.588;2023-03-11T22:59:19;92119.09;;;9.52;48.38
67377;BME280;54261;46.086;6.588;2023-03-11T23:04:21;92157.59;;;9.12;46.99
67377;BME280;54261;46.086;6.588;2023-03-11T23:09:23;92159.09;;;8.43;47.82
67377;BME280;54261;46.086;6.588;2023-03-11T23:14:25;92172.16;;;8.04;48.93
67377;BME280;54261;46.086;6.588;2023-03-11T23:19:44;92176.69;;;6.94;51.45
67377;BME280;54261;46.086;6.588;2023-03-11T23:24:46;92177.84;;;8.52;50.95
67377;BME280;54261;46.086;6.588;2023-03-11T23:29:48;92167.03;;;8.92;49.58
67377;BME280;54261;46.086;6.588;2023-03-11T23:34:51;92177.09;;;8.77;47.94
67377;BME280;54261;46.086;6.588;2023-03-11T23:39:52;92161.31;;;8.49;50.41
67377;BME280;54261;46.086;6.588;2023-03-11T23:44:54;92181.22;;;9.10;49.47
67377;BME280;54261;46.086;6.588;2023-03-11T23:49:56;92176.63;;;9.19;48.10
67377;BME280;54261;46.086;6.588;2023-03-11T23:54:59;92159.50;;;6.50;52.90
